sensor_id;sensor_type;location;lat;lon;timestamp;P1;durP1;ratioP1;P2;durP2;ratioP2
81135;SDS011;70622;50.886;3.890;2023-06-22T00:00:52;8.15;;;4.65;;
81135;SDS011;70622;50.886;3.890;2023-06-22T00:03:18;8.27;;;4.50;;
81135;SDS011;70622;50.886;3.890;2023-06-22T00:05:46;7.70;;;4.60;;
81135;SDS011;70622;50.886;3.890;2023-06-22T00:08:12;9.68;;;5.07;;
81135;SDS011;70622;50.886;3.890;2023-06-22T00:10:38;9.13;;;4.32;;
81135;SDS011;70622;50.886;3.890;2023-06-22T00:13:04;8.95;;;5.20;;
81135;SDS011;70622;50.886;3.890;2023-06-22T00:15:33;8.00;;;4.78;;
81135;SDS011;70622;50.886;3.890;2023-06-22T00:17:59;9.98;;;5.10;;
81135;SDS011;70622;50.886;3.890;2023-06-22T00:20:25;7.47;;;4.65;;
81135;SDS011;70622;50.886;3.890;2023-06-22T00:22:53;9.88;;;5.25;;
81135;SDS011;70622;50.886;3.890;2023-06-22T00:25:19;8.70;;;5.43;;
81135;SDS011;70622;50.886;3.890;2023-06-22T00:27:45;9.27;;;5.03;;
81135;SDS011;70622;50.886;3.890;2023-06-22T00:30:11;10.05;;;5.43;;
81135;SDS011;70622;50.886;3.890;2023-06-22T00:32:37;11.18;;;5.50;;
81135;SDS011;70622;50.886;3.890;2023-06-22T00:35:02;10.43;;;5.40;;
81135;SDS011;70622;50.886;3.890;2023-06-22T00:37:28;10.23;;;6.20;;
81135;SDS011;70622;50.886;3.890;2023-06-22T00:39:55;9.23;;;5.57;;
81135;SDS011;70622;50.886;3.890;2023-06-22T00:42:21;10.07;;;5.63;;
81135;SDS011;70622;50.886;3.890;2023-06-22T00:44:47;10.38;;;5.35;;
81135;SDS011;70622;50.886;3.890;2023-06-22T00:47:13;12.73;;;5.82;;
81135;SDS011;70622;50.886;3.890;2023-06-22T00:49:41;9.40;;;5.60;;
81135;SDS011;70622;50.886;3.890;2023-06-22T00:52:07;10.00;;;5.80;;
81135;SDS011;70622;50.886;3.890;2023-06-22T00:54:37;9.32;;;5.93;;
81135;SDS011;70622;50.886;3.890;2023-06-22T00:57:03;10.63;;;5.78;;
81135;SDS011;70622;50.886;3.890;2023-06-22T00:59:29;9.25;;;6.10;;
81135;SDS011;70622;50.886;3.890;2023-06-22T01:01:57;9.63;;;6.07;;
81135;SDS011;70622;50.886;3.890;2023-06-22T01:04:24;11.23;;;6.13;;
81135;SDS011;70622;50.886;3.890;2023-06-22T01:09:54;10.65;;;6.00;;
81135;SDS011;70622;50.886;3.890;2023-06-22T01:12:26;10.48;;;6.43;;
81135;SDS011;70622;50.886;3.890;2023-06-22T01:15:09;12.93;;;6.10;;
81135;SDS011;70622;50.886;3.890;2023-06-22T01:17:39;12.48;;;6.45;;
81135;SDS011;70622;50.886;3.890;2023-06-22T01:20:08;11.20;;;6.05;;
81135;SDS011;70622;50.886;3.890;2023-06-22T01:22:42;10.57;;;5.78;;
81135;SDS011;70622;50.886;3.890;2023-06-22T01:25:32;13.13;;;6.45;;
81135;SDS011;70622;50.886;3.890;2023-06-22T01:30:51;11.00;;;6.10;;
81135;SDS011;70622;50.886;3.890;2023-06-22T01:33:28;9.48;;;6.07;;
81135;SDS011;70622;50.886;3.890;2023-06-22T01:35:56;12.27;;;6.72;;
81135;SDS011;70622;50.886;3.890;2023-06-22T01:38:22;10.15;;;6.30;;
81135;SDS011;70622;50.886;3.890;2023-06-22T01:40:49;10.60;;;6.53;;
81135;SDS011;70622;50.886;3.890;2023-06-22T01:43:15;11.85;;;7.30;;
81135;SDS011;70622;50.886;3.890;2023-06-22T01:45:42;11.52;;;6.88;;
81135;SDS011;70622;50.886;3.890;2023-06-22T01:48:07;10.98;;;6.82;;
81135;SDS011;70622;50.886;3.890;2023-06-22T01:50:33;10.27;;;6.63;;
81135;SDS011;70622;50.886;3.890;2023-06-22T01:52:59;10.32;;;6.47;;
81135;SDS011;70622;50.886;3.890;2023-06-22T01:55:25;12.20;;;7.32;;
81135;SDS011;70622;50.886;3.890;2023-06-22T01:57:50;13.15;;;6.88;;
81135;SDS011;70622;50.886;3.890;2023-06-22T02:00:18;14.45;;;7.38;;
81135;SDS011;70622;50.886;3.890;2023-06-22T02:02:52;13.00;;;7.32;;
81135;SDS011;70622;50.886;3.890;2023-06-22T02:05:24;12.35;;;7.30;;
81135;SDS011;70622;50.886;3.890;2023-06-22T02:08:00;10.77;;;6.22;;
81135;SDS011;70622;50.886;3.890;2023-06-22T02:10:34;12.05;;;7.47;;
81135;SDS011;70622;50.886;3.890;2023-06-22T02:13:03;11.82;;;7.70;;
81135;SDS011;70622;50.886;3.890;2023-06-22T02:15:31;13.65;;;7.40;;
81135;SDS011;70622;50.886;3.890;2023-06-22T02:17:57;13.43;;;7.80;;
81135;SDS011;70622;50.886;3.890;2023-06-22T02:20:24;11.63;;;7.30;;
81135;SDS011;70622;50.886;3.890;2023-06-22T02:22:50;16.30;;;8.70;;
81135;SDS011;70622;50.886;3.890;2023-06-22T02:25:15;13.25;;;7.78;;
81135;SDS011;70622;50.886;3.890;2023-06-22T02:27:41;14.27;;;7.97;;
81135;SDS011;70622;50.886;3.890;2023-06-22T02:30:10;13.32;;;7.75;;
81135;SDS011;70622;50.886;3.890;2023-06-22T02:32:37;13.40;;;7.20;;
81135;SDS011;70622;50.886;3.890;2023-06-22T02:35:06;14.70;;;8.82;;
81135;SDS011;70622;50.886;3.890;2023-06-22T02:37:33;13.13;;;8.25;;
81135;SDS011;70622;50.886;3.890;2023-06-22T02:40:03;15.23;;;7.85;;
81135;SDS011;70622;50.886;3.890;2023-06-22T02:42:31;16.63;;;8.60;;
81135;SDS011;70622;50.886;3.890;2023-06-22T02:44:57;15.70;;;8.63;;
81135;SDS011;70622;50.886;3.890;2023-06-22T02:47:23;13.82;;;7.88;;
81135;SDS011;70622;50.886;3.890;2023-06-22T02:49:48;14.40;;;7.68;;
81135;SDS011;70622;50.886;3.890;2023-06-22T02:52:14;15.02;;;8.43;;
81135;SDS011;70622;50.886;3.890;2023-06-22T02:54:40;16.52;;;8.57;;
81135;SDS011;70622;50.886;3.890;2023-06-22T02:57:05;14.27;;;7.72;;
81135;SDS011;70622;50.886;3.890;2023-06-22T02:59:31;13.70;;;7.68;;
81135;SDS011;70622;50.886;3.890;2023-06-22T03:01:57;13.55;;;7.72;;
81135;SDS011;70622;50.886;3.890;2023-06-22T03:04:22;14.18;;;7.75;;
81135;SDS011;70622;50.886;3.890;2023-06-22T03:06:48;12.50;;;7.95;;
81135;SDS011;70622;50.886;3.890;2023-06-22T03:09:16;16.17;;;8.73;;
81135;SDS011;70622;50.886;3.890;2023-06-22T03:11:42;14.77;;;7.93;;
81135;SDS011;70622;50.886;3.890;2023-06-22T03:14:07;14.45;;;8.55;;
81135;SDS011;70622;50.886;3.890;2023-06-22T03:16:33;13.73;;;7.95;;
81135;SDS011;70622;50.886;3.890;2023-06-22T03:18:59;14.07;;;8.15;;
81135;SDS011;70622;50.886;3.890;2023-06-22T03:21:26;12.95;;;7.93;;
81135;SDS011;70622;50.886;3.890;2023-06-22T03:23:53;14.57;;;8.18;;
81135;SDS011;70622;50.886;3.890;2023-06-22T03:26:19;13.38;;;7.88;;
81135;SDS011;70622;50.886;3.890;2023-06-22T03:28:44;14.60;;;8.13;;
81135;SDS011;70622;50.886;3.890;2023-06-22T03:31:10;12.25;;;7.75;;
81135;SDS011;70622;50.886;3.890;2023-06-22T03:33:36;16.05;;;8.18;;
81135;SDS011;70622;50.886;3.890;2023-06-22T03:36:02;16.25;;;8.02;;
81135;SDS011;70622;50.886;3.890;2023-06-22T03:38:28;12.38;;;7.78;;
81135;SDS011;70622;50.886;3.890;2023-06-22T03:40:53;14.95;;;7.85;;
81135;SDS011;70622;50.886;3.890;2023-06-22T03:43:19;13.60;;;8.07;;
81135;SDS011;70622;50.886;3.890;2023-06-22T03:45:45;13.00;;;7.35;;
81135;SDS011;70622;50.886;3.890;2023-06-22T03:48:11;11.50;;;7.13;;
81135;SDS011;70622;50.886;3.890;2023-06-22T03:50:37;11.88;;;7.63;;
81135;SDS011;70622;50.886;3.890;2023-06-22T03:53:03;12.43;;;7.88;;
81135;SDS011;70622;50.886;3.890;2023-06-22T03:55:28;12.40;;;7.50;;
81135;SDS011;70622;50.886;3.890;2023-06-22T03:57:55;11.85;;;7.30;;
81135;SDS011;70622;50.886;3.890;2023-06-22T04:00:22;10.82;;;7.25;;
81135;SDS011;70622;50.886;3.890;2023-06-22T04:02:48;11.18;;;7.18;;
81135;SDS011;70622;50.886;3.890;2023-06-22T04:05:14;13.85;;;7.35;;
81135;SDS011;70622;50.886;3.890;2023-06-22T04:07:42;10.88;;;6.80;;
81135;SDS011;70622;50.886;3.890;2023-06-22T04:10:08;10.57;;;7.15;;
81135;SDS011;70622;50.886;3.890;2023-06-22T04:12:34;10.80;;;6.80;;
81135;SDS011;70622;50.886;3.890;2023-06-22T04:14:59;11.45;;;6.65;;
81135;SDS011;70622;50.886;3.890;2023-06-22T04:17:25;12.90;;;6.72;;
81135;SDS011;70622;50.886;3.890;2023-06-22T04:19:51;12.32;;;7.22;;
81135;SDS011;70622;50.886;3.890;2023-06-22T04:22:17;11.25;;;6.55;;
81135;SDS011;70622;50.886;3.890;2023-06-22T04:24:43;11.85;;;6.85;;
81135;SDS011;70622;50.886;3.890;2023-06-22T04:27:09;10.75;;;6.65;;
81135;SDS011;70622;50.886;3.890;2023-06-22T04:29:35;9.75;;;6.68;;
81135;SDS011;70622;50.886;3.890;2023-06-22T04:32:01;11.32;;;6.65;;
81135;SDS011;70622;50.886;3.890;2023-06-22T04:34:30;10.60;;;6.50;;
81135;SDS011;70622;50.886;3.890;2023-06-22T04:36:56;12.07;;;6.50;;
81135;SDS011;70622;50.886;3.890;2023-06-22T04:39:22;11.02;;;6.88;;
81135;SDS011;70622;50.886;3.890;2023-06-22T04:41:48;10.77;;;6.10;;
81135;SDS011;70622;50.886;3.890;2023-06-22T04:44:16;10.80;;;6.80;;
81135;SDS011;70622;50.886;3.890;2023-06-22T04:46:50;12.23;;;6.38;;
81135;SDS011;70622;50.886;3.890;2023-06-22T04:49:19;10.25;;;6.68;;
81135;SDS011;70622;50.886;3.890;2023-06-22T04:51:45;12.40;;;6.82;;
81135;SDS011;70622;50.886;3.890;2023-06-22T04:54:11;14.30;;;6.90;;
81135;SDS011;70622;50.886;3.890;2023-06-22T04:56:37;9.25;;;6.25;;
81135;SDS011;70622;50.886;3.890;2023-06-22T04:59:06;10.47;;;6.77;;
81135;SDS011;70622;50.886;3.890;2023-06-22T05:01:32;11.73;;;6.90;;
81135;SDS011;70622;50.886;3.890;2023-06-22T05:04:00;10.13;;;6.20;;
81135;SDS011;70622;50.886;3.890;2023-06-22T05:06:27;9.23;;;6.47;;
81135;SDS011;70622;50.886;3.890;2023-06-22T05:08:53;12.75;;;6.97;;
81135;SDS011;70622;50.886;3.890;2023-06-22T05:13:49;9.77;;;6.53;;
81135;SDS011;70622;50.886;3.890;2023-06-22T05:16:15;10.00;;;6.22;;
81135;SDS011;70622;50.886;3.890;2023-06-22T05:18:41;11.90;;;6.95;;
81135;SDS011;70622;50.886;3.890;2023-06-22T05:21:08;10.57;;;6.38;;
81135;SDS011;70622;50.886;3.890;2023-06-22T05:23:34;11.38;;;6.72;;
81135;SDS011;70622;50.886;3.890;2023-06-22T05:25:59;10.57;;;6.60;;
81135;SDS011;70622;50.886;3.890;2023-06-22T05:28:28;10.00;;;6.38;;
81135;SDS011;70622;50.886;3.890;2023-06-22T05:30:54;12.90;;;6.93;;
81135;SDS011;70622;50.886;3.890;2023-06-22T05:33:19;13.05;;;6.57;;
81135;SDS011;70622;50.886;3.890;2023-06-22T05:35:45;10.25;;;6.68;;
81135;SDS011;70622;50.886;3.890;2023-06-22T05:38:11;12.25;;;6.95;;
81135;SDS011;70622;50.886;3.890;2023-06-22T05:40:37;13.38;;;6.80;;
81135;SDS011;70622;50.886;3.890;2023-06-22T05:43:03;9.85;;;6.75;;
81135;SDS011;70622;50.886;3.890;2023-06-22T05:45:28;11.00;;;6.40;;
81135;SDS011;70622;50.886;3.890;2023-06-22T05:47:54;11.95;;;7.07;;
81135;SDS011;70622;50.886;3.890;2023-06-22T05:50:19;12.80;;;6.90;;
81135;SDS011;70622;50.886;3.890;2023-06-22T05:52:45;10.27;;;6.95;;
81135;SDS011;70622;50.886;3.890;2023-06-22T05:55:11;12.10;;;6.38;;
81135;SDS011;70622;50.886;3.890;2023-06-22T05:57:36;13.15;;;7.10;;
81135;SDS011;70622;50.886;3.890;2023-06-22T06:00:02;11.52;;;7.55;;
81135;SDS011;70622;50.886;3.890;2023-06-22T06:02:31;12.98;;;8.00;;
81135;SDS011;70622;50.886;3.890;2023-06-22T06:04:58;13.80;;;7.35;;
81135;SDS011;70622;50.886;3.890;2023-06-22T06:07:24;11.57;;;7.25;;
81135;SDS011;70622;50.886;3.890;2023-06-22T06:09:50;13.10;;;7.13;;
81135;SDS011;70622;50.886;3.890;2023-06-22T06:12:16;12.40;;;8.02;;
81135;SDS011;70622;50.886;3.890;2023-06-22T06:14:41;14.40;;;8.38;;
81135;SDS011;70622;50.886;3.890;2023-06-22T06:17:07;14.13;;;7.85;;
81135;SDS011;70622;50.886;3.890;2023-06-22T06:19:33;14.32;;;8.45;;
81135;SDS011;70622;50.886;3.890;2023-06-22T06:21:59;12.40;;;8.35;;
81135;SDS011;70622;50.886;3.890;2023-06-22T06:24:25;13.93;;;8.32;;
81135;SDS011;70622;50.886;3.890;2023-06-22T06:26:51;13.73;;;9.18;;
81135;SDS011;70622;50.886;3.890;2023-06-22T06:29:17;13.88;;;8.80;;
81135;SDS011;70622;50.886;3.890;2023-06-22T06:31:42;12.68;;;8.30;;
81135;SDS011;70622;50.886;3.890;2023-06-22T06:34:08;11.77;;;8.23;;
81135;SDS011;70622;50.886;3.890;2023-06-22T06:36:33;18.27;;;9.20;;
81135;SDS011;70622;50.886;3.890;2023-06-22T06:38:59;14.05;;;8.68;;
81135;SDS011;70622;50.886;3.890;2023-06-22T06:41:25;15.32;;;9.38;;
81135;SDS011;70622;50.886;3.890;2023-06-22T06:43:50;14.55;;;9.10;;
81135;SDS011;70622;50.886;3.890;2023-06-22T06:46:16;13.90;;;9.15;;
81135;SDS011;70622;50.886;3.890;2023-06-22T06:48:44;13.55;;;8.88;;
81135;SDS011;70622;50.886;3.890;2023-06-22T06:51:09;13.35;;;9.05;;
81135;SDS011;70622;50.886;3.890;2023-06-22T06:53:36;17.38;;;9.50;;
81135;SDS011;70622;50.886;3.890;2023-06-22T06:56:03;15.63;;;9.95;;
81135;SDS011;70622;50.886;3.890;2023-06-22T06:58:30;17.17;;;10.68;;
81135;SDS011;70622;50.886;3.890;2023-06-22T07:00:56;16.30;;;10.43;;
81135;SDS011;70622;50.886;3.890;2023-06-22T07:03:25;18.67;;;10.95;;
81135;SDS011;70622;50.886;3.890;2023-06-22T07:05:51;17.58;;;11.15;;
81135;SDS011;70622;50.886;3.890;2023-06-22T07:08:16;16.55;;;10.73;;
81135;SDS011;70622;50.886;3.890;2023-06-22T07:10:42;16.30;;;10.93;;
81135;SDS011;70622;50.886;3.890;2023-06-22T07:13:08;17.48;;;10.80;;
81135;SDS011;70622;50.886;3.890;2023-06-22T07:15:33;16.13;;;11.18;;
81135;SDS011;70622;50.886;3.890;2023-06-22T07:17:59;16.05;;;11.48;;
81135;SDS011;70622;50.886;3.890;2023-06-22T07:20:24;21.63;;;11.07;;
81135;SDS011;70622;50.886;3.890;2023-06-22T07:22:51;14.55;;;10.88;;
81135;SDS011;70622;50.886;3.890;2023-06-22T07:25:17;20.48;;;11.57;;
81135;SDS011;70622;50.886;3.890;2023-06-22T07:27:59;17.92;;;11.45;;
81135;SDS011;70622;50.886;3.890;2023-06-22T07:30:28;17.58;;;11.30;;
81135;SDS011;70622;50.886;3.890;2023-06-22T07:32:54;19.27;;;11.98;;
81135;SDS011;70622;50.886;3.890;2023-06-22T07:35:20;16.30;;;11.65;;
81135;SDS011;70622;50.886;3.890;2023-06-22T07:37:45;16.92;;;11.63;;
81135;SDS011;70622;50.886;3.890;2023-06-22T07:40:11;19.02;;;11.88;;
81135;SDS011;70622;50.886;3.890;2023-06-22T07:42:37;16.63;;;11.70;;
81135;SDS011;70622;50.886;3.890;2023-06-22T07:45:03;17.52;;;12.25;;
81135;SDS011;70622;50.886;3.890;2023-06-22T07:47:30;20.50;;;13.13;;
81135;SDS011;70622;50.886;3.890;2023-06-22T07:50:00;18.73;;;12.25;;
81135;SDS011;70622;50.886;3.890;2023-06-22T07:52:27;26.08;;;12.52;;
81135;SDS011;70622;50.886;3.890;2023-06-22T07:54:53;19.73;;;13.20;;
81135;SDS011;70622;50.886;3.890;2023-06-22T07:57:19;20.23;;;13.18;;
81135;SDS011;70622;50.886;3.890;2023-06-22T07:59:45;20.48;;;13.05;;
81135;SDS011;70622;50.886;3.890;2023-06-22T08:02:11;19.33;;;13.00;;
81135;SDS011;70622;50.886;3.890;2023-06-22T08:04:37;21.98;;;13.60;;
81135;SDS011;70622;50.886;3.890;2023-06-22T08:07:03;20.73;;;13.05;;
81135;SDS011;70622;50.886;3.890;2023-06-22T08:09:30;19.33;;;13.27;;
81135;SDS011;70622;50.886;3.890;2023-06-22T08:11:57;21.17;;;13.70;;
81135;SDS011;70622;50.886;3.890;2023-06-22T08:14:24;19.67;;;13.70;;
81135;SDS011;70622;50.886;3.890;2023-06-22T08:16:51;20.13;;;14.85;;
81135;SDS011;70622;50.886;3.890;2023-06-22T08:19:17;17.95;;;13.27;;
81135;SDS011;70622;50.886;3.890;2023-06-22T08:21:43;23.33;;;13.85;;
81135;SDS011;70622;50.886;3.890;2023-06-22T08:24:08;21.92;;;13.77;;
81135;SDS011;70622;50.886;3.890;2023-06-22T08:26:34;20.92;;;14.77;;
81135;SDS011;70622;50.886;3.890;2023-06-22T08:29:02;22.73;;;14.02;;
81135;SDS011;70622;50.886;3.890;2023-06-22T08:31:29;22.15;;;14.70;;
81135;SDS011;70622;50.886;3.890;2023-06-22T08:33:55;21.45;;;14.77;;
81135;SDS011;70622;50.886;3.890;2023-06-22T08:36:24;25.27;;;15.40;;
81135;SDS011;70622;50.886;3.890;2023-06-22T08:38:50;23.35;;;15.43;;
81135;SDS011;70622;50.886;3.890;2023-06-22T08:41:16;23.92;;;15.02;;
81135;SDS011;70622;50.886;3.890;2023-06-22T08:43:43;21.10;;;14.95;;
81135;SDS011;70622;50.886;3.890;2023-06-22T08:46:09;25.00;;;15.63;;
81135;SDS011;70622;50.886;3.890;2023-06-22T08:48:38;24.45;;;15.73;;
81135;SDS011;70622;50.886;3.890;2023-06-22T08:51:04;24.20;;;16.08;;
81135;SDS011;70622;50.886;3.890;2023-06-22T08:53:29;27.98;;;16.83;;
81135;SDS011;70622;50.886;3.890;2023-06-22T08:55:55;24.65;;;17.27;;
81135;SDS011;70622;50.886;3.890;2023-06-22T08:58:21;24.60;;;16.52;;
81135;SDS011;70622;50.886;3.890;2023-06-22T09:00:49;21.90;;;16.17;;
81135;SDS011;70622;50.886;3.890;2023-06-22T09:03:15;22.05;;;15.82;;
81135;SDS011;70622;50.886;3.890;2023-06-22T09:05:41;24.50;;;17.10;;
81135;SDS011;70622;50.886;3.890;2023-06-22T09:08:06;22.58;;;16.77;;
81135;SDS011;70622;50.886;3.890;2023-06-22T09:10:32;22.33;;;16.40;;
81135;SDS011;70622;50.886;3.890;2023-06-22T09:12:58;25.90;;;17.00;;
81135;SDS011;70622;50.886;3.890;2023-06-22T09:15:23;23.65;;;17.27;;
81135;SDS011;70622;50.886;3.890;2023-06-22T09:17:49;27.45;;;18.15;;
81135;SDS011;70622;50.886;3.890;2023-06-22T09:20:15;24.92;;;17.98;;
81135;SDS011;70622;50.886;3.890;2023-06-22T09:22:41;26.02;;;17.67;;
81135;SDS011;70622;50.886;3.890;2023-06-22T09:25:07;27.25;;;17.88;;
81135;SDS011;70622;50.886;3.890;2023-06-22T09:27:33;24.38;;;17.35;;
81135;SDS011;70622;50.886;3.890;2023-06-22T09:29:59;28.55;;;17.27;;
81135;SDS011;70622;50.886;3.890;2023-06-22T09:32:25;26.50;;;18.17;;
81135;SDS011;70622;50.886;3.890;2023-06-22T09:34:58;28.80;;;17.98;;
81135;SDS011;70622;50.886;3.890;2023-06-22T09:37:24;26.67;;;18.00;;
81135;SDS011;70622;50.886;3.890;2023-06-22T09:39:49;29.77;;;18.85;;
81135;SDS011;70622;50.886;3.890;2023-06-22T09:42:15;26.58;;;18.33;;
81135;SDS011;70622;50.886;3.890;2023-06-22T09:44:41;27.58;;;18.95;;
81135;SDS011;70622;50.886;3.890;2023-06-22T09:47:06;28.77;;;20.08;;
81135;SDS011;70622;50.886;3.890;2023-06-22T09:49:35;29.42;;;18.55;;
81135;SDS011;70622;50.886;3.890;2023-06-22T09:52:01;29.08;;;18.95;;
81135;SDS011;70622;50.886;3.890;2023-06-22T09:54:27;29.38;;;19.95;;
81135;SDS011;70622;50.886;3.890;2023-06-22T09:56:53;32.63;;;20.30;;
81135;SDS011;70622;50.886;3.890;2023-06-22T09:59:21;30.08;;;19.85;;
81135;SDS011;70622;50.886;3.890;2023-06-22T10:01:47;32.63;;;19.70;;
81135;SDS011;70622;50.886;3.890;2023-06-22T10:04:13;31.13;;;19.67;;
81135;SDS011;70622;50.886;3.890;2023-06-22T10:06:38;28.52;;;19.65;;
81135;SDS011;70622;50.886;3.890;2023-06-22T10:09:05;28.77;;;20.50;;
81135;SDS011;70622;50.886;3.890;2023-06-22T10:11:32;28.80;;;19.77;;
81135;SDS011;70622;50.886;3.890;2023-06-22T10:14:02;31.60;;;20.67;;
81135;SDS011;70622;50.886;3.890;2023-06-22T10:16:32;29.50;;;19.20;;
81135;SDS011;70622;50.886;3.890;2023-06-22T10:19:00;31.10;;;20.52;;
81135;SDS011;70622;50.886;3.890;2023-06-22T10:21:26;27.98;;;20.52;;
81135;SDS011;70622;50.886;3.890;2023-06-22T10:23:53;29.42;;;20.33;;
81135;SDS011;70622;50.886;3.890;2023-06-22T10:26:20;35.60;;;21.10;;
81135;SDS011;70622;50.886;3.890;2023-06-22T10:28:45;31.83;;;21.73;;
81135;SDS011;70622;50.886;3.890;2023-06-22T10:31:11;29.38;;;19.77;;
81135;SDS011;70622;50.886;3.890;2023-06-22T10:33:37;28.42;;;17.80;;
81135;SDS011;70622;50.886;3.890;2023-06-22T10:36:02;20.85;;;15.45;;
81135;SDS011;70622;50.886;3.890;2023-06-22T10:38:28;22.30;;;14.75;;
81135;SDS011;70622;50.886;3.890;2023-06-22T10:40:54;20.02;;;14.48;;
81135;SDS011;70622;50.886;3.890;2023-06-22T10:43:20;22.83;;;15.32;;
81135;SDS011;70622;50.886;3.890;2023-06-22T10:45:45;24.25;;;15.98;;
81135;SDS011;70622;50.886;3.890;2023-06-22T10:48:11;24.23;;;16.73;;
81135;SDS011;70622;50.886;3.890;2023-06-22T10:50:37;24.77;;;16.83;;
81135;SDS011;70622;50.886;3.890;2023-06-22T10:53:05;24.95;;;16.85;;
81135;SDS011;70622;50.886;3.890;2023-06-22T10:55:31;28.10;;;18.60;;
81135;SDS011;70622;50.886;3.890;2023-06-22T10:57:57;29.48;;;19.38;;
81135;SDS011;70622;50.886;3.890;2023-06-22T11:00:22;28.10;;;20.75;;
81135;SDS011;70622;50.886;3.890;2023-06-22T11:02:48;36.53;;;21.02;;
81135;SDS011;70622;50.886;3.890;2023-06-22T11:05:14;32.97;;;20.42;;
81135;SDS011;70622;50.886;3.890;2023-06-22T11:07:43;30.33;;;21.25;;
81135;SDS011;70622;50.886;3.890;2023-06-22T11:10:09;26.45;;;18.73;;
81135;SDS011;70622;50.886;3.890;2023-06-22T11:12:36;30.10;;;20.10;;
81135;SDS011;70622;50.886;3.890;2023-06-22T11:15:01;29.13;;;20.48;;
81135;SDS011;70622;50.886;3.890;2023-06-22T11:17:27;27.92;;;18.90;;
81135;SDS011;70622;50.886;3.890;2023-06-22T11:19:56;34.40;;;20.30;;
81135;SDS011;70622;50.886;3.890;2023-06-22T11:22:21;33.35;;;21.67;;
81135;SDS011;70622;50.886;3.890;2023-06-22T11:24:47;30.17;;;21.25;;
81135;SDS011;70622;50.886;3.890;2023-06-22T11:27:13;30.15;;;21.17;;
81135;SDS011;70622;50.886;3.890;2023-06-22T11:29:39;32.55;;;21.17;;
81135;SDS011;70622;50.886;3.890;2023-06-22T11:32:05;35.13;;;21.83;;
81135;SDS011;70622;50.886;3.890;2023-06-22T11:34:32;31.92;;;21.83;;
81135;SDS011;70622;50.886;3.890;2023-06-22T11:36:58;35.72;;;22.75;;
81135;SDS011;70622;50.886;3.890;2023-06-22T11:39:23;30.88;;;20.58;;
81135;SDS011;70622;50.886;3.890;2023-06-22T11:41:49;26.85;;;18.42;;
81135;SDS011;70622;50.886;3.890;2023-06-22T11:44:14;26.42;;;17.55;;
81135;SDS011;70622;50.886;3.890;2023-06-22T11:46:40;27.10;;;17.98;;
81135;SDS011;70622;50.886;3.890;2023-06-22T11:49:09;25.10;;;16.85;;
81135;SDS011;70622;50.886;3.890;2023-06-22T11:51:34;22.73;;;16.35;;
81135;SDS011;70622;50.886;3.890;2023-06-22T11:54:03;22.23;;;15.57;;
81135;SDS011;70622;50.886;3.890;2023-06-22T11:56:35;17.02;;;12.15;;
81135;SDS011;70622;50.886;3.890;2023-06-22T11:59:00;19.33;;;13.43;;
81135;SDS011;70622;50.886;3.890;2023-06-22T12:01:26;18.85;;;13.13;;
81135;SDS011;70622;50.886;3.890;2023-06-22T12:03:52;19.92;;;13.45;;
81135;SDS011;70622;50.886;3.890;2023-06-22T12:06:18;19.65;;;14.57;;
81135;SDS011;70622;50.886;3.890;2023-06-22T12:08:43;18.60;;;14.40;;
81135;SDS011;70622;50.886;3.890;2023-06-22T12:11:09;22.88;;;15.07;;
81135;SDS011;70622;50.886;3.890;2023-06-22T12:13:35;18.20;;;13.50;;
81135;SDS011;70622;50.886;3.890;2023-06-22T12:16:01;18.83;;;12.70;;
81135;SDS011;70622;50.886;3.890;2023-06-22T12:18:26;16.20;;;13.10;;
81135;SDS011;70622;50.886;3.890;2023-06-22T12:20:58;20.38;;;14.52;;
81135;SDS011;70622;50.886;3.890;2023-06-22T12:23:24;18.30;;;12.73;;
81135;SDS011;70622;50.886;3.890;2023-06-22T12:25:50;19.13;;;12.35;;
81135;SDS011;70622;50.886;3.890;2023-06-22T12:28:16;17.17;;;11.40;;
81135;SDS011;70622;50.886;3.890;2023-06-22T12:30:42;18.85;;;12.95;;
81135;SDS011;70622;50.886;3.890;2023-06-22T12:33:07;15.30;;;10.60;;
81135;SDS011;70622;50.886;3.890;2023-06-22T12:35:34;19.75;;;10.98;;
81135;SDS011;70622;50.886;3.890;2023-06-22T12:38:00;16.88;;;11.20;;
81135;SDS011;70622;50.886;3.890;2023-06-22T12:40:25;15.80;;;10.07;;
81135;SDS011;70622;50.886;3.890;2023-06-22T12:42:51;19.33;;;10.98;;
81135;SDS011;70622;50.886;3.890;2023-06-22T12:45:17;18.92;;;10.77;;
81135;SDS011;70622;50.886;3.890;2023-06-22T12:47:43;16.83;;;10.75;;
81135;SDS011;70622;50.886;3.890;2023-06-22T12:50:09;17.13;;;10.85;;
81135;SDS011;70622;50.886;3.890;2023-06-22T12:52:36;17.20;;;10.85;;
81135;SDS011;70622;50.886;3.890;2023-06-22T12:55:05;16.70;;;11.25;;
81135;SDS011;70622;50.886;3.890;2023-06-22T12:57:31;18.10;;;11.18;;
81135;SDS011;70622;50.886;3.890;2023-06-22T12:59:57;16.05;;;10.88;;
81135;SDS011;70622;50.886;3.890;2023-06-22T13:02:25;16.73;;;11.70;;
81135;SDS011;70622;50.886;3.890;2023-06-22T13:04:51;19.40;;;12.35;;
81135;SDS011;70622;50.886;3.890;2023-06-22T13:07:17;17.90;;;12.68;;
81135;SDS011;70622;50.886;3.890;2023-06-22T13:09:45;18.15;;;12.20;;
81135;SDS011;70622;50.886;3.890;2023-06-22T13:12:11;20.23;;;13.07;;
81135;SDS011;70622;50.886;3.890;2023-06-22T13:14:37;20.75;;;12.75;;
81135;SDS011;70622;50.886;3.890;2023-06-22T13:17:03;19.27;;;13.20;;
81135;SDS011;70622;50.886;3.890;2023-06-22T13:19:28;18.30;;;12.45;;
81135;SDS011;70622;50.886;3.890;2023-06-22T13:21:57;18.63;;;12.00;;
81135;SDS011;70622;50.886;3.890;2023-06-22T13:24:27;20.20;;;12.73;;
81135;SDS011;70622;50.886;3.890;2023-06-22T13:26:52;18.35;;;13.05;;
81135;SDS011;70622;50.886;3.890;2023-06-22T13:29:18;21.33;;;13.63;;
81135;SDS011;70622;50.886;3.890;2023-06-22T13:31:44;20.80;;;14.10;;
81135;SDS011;70622;50.886;3.890;2023-06-22T13:34:09;23.60;;;14.75;;
81135;SDS011;70622;50.886;3.890;2023-06-22T13:36:35;24.95;;;14.65;;
81135;SDS011;70622;50.886;3.890;2023-06-22T13:39:01;23.08;;;14.32;;
81135;SDS011;70622;50.886;3.890;2023-06-22T13:41:26;22.85;;;14.02;;
81135;SDS011;70622;50.886;3.890;2023-06-22T13:43:52;20.90;;;13.95;;
81135;SDS011;70622;50.886;3.890;2023-06-22T13:46:18;22.95;;;14.43;;
81135;SDS011;70622;50.886;3.890;2023-06-22T13:48:44;22.00;;;12.95;;
81135;SDS011;70622;50.886;3.890;2023-06-22T13:51:09;21.55;;;14.48;;
81135;SDS011;70622;50.886;3.890;2023-06-22T13:53:38;20.15;;;13.45;;
81135;SDS011;70622;50.886;3.890;2023-06-22T13:56:03;21.75;;;13.52;;
81135;SDS011;70622;50.886;3.890;2023-06-22T13:58:29;18.77;;;12.98;;
81135;SDS011;70622;50.886;3.890;2023-06-22T14:00:55;21.98;;;13.88;;
81135;SDS011;70622;50.886;3.890;2023-06-22T14:03:20;20.83;;;14.27;;
81135;SDS011;70622;50.886;3.890;2023-06-22T14:05:46;21.92;;;14.73;;
81135;SDS011;70622;50.886;3.890;2023-06-22T14:08:13;21.45;;;13.25;;
81135;SDS011;70622;50.886;3.890;2023-06-22T14:10:40;21.17;;;13.40;;
81135;SDS011;70622;50.886;3.890;2023-06-22T14:13:05;20.73;;;13.88;;
81135;SDS011;70622;50.886;3.890;2023-06-22T14:15:31;20.13;;;13.70;;
81135;SDS011;70622;50.886;3.890;2023-06-22T14:17:57;22.77;;;14.40;;
81135;SDS011;70622;50.886;3.890;2023-06-22T14:20:23;20.65;;;14.93;;
81135;SDS011;70622;50.886;3.890;2023-06-22T14:22:52;23.00;;;14.98;;
81135;SDS011;70622;50.886;3.890;2023-06-22T14:25:35;23.90;;;15.07;;
81135;SDS011;70622;50.886;3.890;2023-06-22T14:28:01;21.27;;;15.55;;
81135;SDS011;70622;50.886;3.890;2023-06-22T14:30:26;21.50;;;15.63;;
81135;SDS011;70622;50.886;3.890;2023-06-22T14:32:52;24.40;;;16.48;;